Massena International Richards Field Massena US
ICAO: KMSS
IATA: MSS
Category: Medium
Scheduled Services: Yes

Elevation: 215 ft
TransAlt. 18000 ft.

Airport Communications:
BOSTON APP/DEP:135.25
ASOS:128.075
BURLINGTON RDO:122.2
CTAF/UNICOM:123

KMSS Zoom In..

If you have problems with the map follow the link
https://www.worldairports.se/pages/airport.php?
ICAO=KMSS

Runways:

(A) RW 05 length 5600 ft width 100 ft
ILS 108.70 / hdg 45

(B) RW 09 length 4000 ft width 100 ft
---- / hdg 90

(C) RW 23 length 5600 ft width 100 ft
---- / hdg 225

(D) RW 27 length 4000 ft width 100 ft
---- / hdg 270

Location; KMSS
Day. 16 / Time. 02.53 Zulu
* Altimeter: 30.14
* Temperature: -04° c. -24.8°f.
* Wind from: 060° Speed 08 kn.
Dewpoint: -08° c.
Visibility: 10 Statute Miles.
Clouds: Broken 7000 ft.
Clouds: Overcast 8500 ft.

KMSS 160253Z AUTO 06008KT 10SM BKN070 OVC085 M04/M08 A3014 RMK AO2 PRESFR SLP212 T10391083 58048


Wind From 060°
Speed 08 kn.

 
 
jpsmedia.com for Web Design worldairports.se 2018   terms of use